sensor_id;sensor_type;location;lat;lon;timestamp;pressure;altitude;pressure_sealevel;temperature;humidity
10145;BME280;5113;41.822;23.564;2023-09-19T00:00:37;-11257.53;;;11.68;100.00
10145;BME280;5113;41.822;23.564;2023-09-19T00:03:43;-11241.19;;;11.09;100.00
10145;BME280;5113;41.822;23.564;2023-09-19T00:06:49;-11237.28;;;10.95;100.00
10145;BME280;5113;41.822;23.564;2023-09-19T00:09:58;-11238.94;;;11.01;100.00
10145;BME280;5113;41.822;23.564;2023-09-19T00:13:06;-11241.47;;;11.10;100.00
10145;BME280;5113;41.822;23.564;2023-09-19T00:16:13;-11244.44;;;11.21;100.00
10145;BME280;5113;41.822;23.564;2023-09-19T00:19:20;-11247.25;;;11.31;100.00
10145;BME280;5113;41.822;23.564;2023-09-19T00:22:28;-11255.56;;;11.61;100.00
10145;BME280;5113;41.822;23.564;2023-09-19T00:25:34;-11259.50;;;11.75;100.00
10145;BME280;5113;41.822;23.564;2023-09-19T00:28:43;-11249.09;;;11.38;100.00
10145;BME280;5113;41.822;23.564;2023-09-19T00:31:49;-11256.41;;;11.64;100.00
10145;BME280;5113;41.822;23.564;2023-09-19T00:34:56;-11259.22;;;11.74;100.00
10145;BME280;5113;41.822;23.564;2023-09-19T00:38:02;-11259.78;;;11.76;100.00
10145;BME280;5113;41.822;23.564;2023-09-19T00:41:09;-11246.56;;;11.29;100.00
10145;BME280;5113;41.822;23.564;2023-09-19T00:44:19;-11245.84;;;11.26;100.00
10145;BME280;5113;41.822;23.564;2023-09-19T00:47:28;-11231.91;;;10.76;100.00
10145;BME280;5113;41.822;23.564;2023-09-19T00:50:35;-11244.03;;;11.19;100.00
10145;BME280;5113;41.822;23.564;2023-09-19T00:53:42;-11246.84;;;11.30;100.00
10145;BME280;5113;41.822;23.564;2023-09-19T00:56:51;-11247.69;;;11.33;100.00
10145;BME280;5113;41.822;23.564;2023-09-19T01:00:00;-11232.47;;;10.78;100.00
10145;BME280;5113;41.822;23.564;2023-09-19T01:03:10;-11225.72;;;10.53;100.00
10145;BME280;5113;41.822;23.564;2023-09-19T01:06:18;-11242.03;;;11.12;100.00
10145;BME280;5113;41.822;23.564;2023-09-19T01:09:25;-11251.34;;;11.46;100.00
10145;BME280;5113;41.822;23.564;2023-09-19T01:12:36;-11244.03;;;11.19;100.00
10145;BME280;5113;41.822;23.564;2023-09-19T01:15:51;-11250.91;;;11.44;100.00
10145;BME280;5113;41.822;23.564;2023-09-19T01:19:14;-11255.56;;;11.61;100.00
10145;BME280;5113;41.822;23.564;2023-09-19T01:22:33;-11253.88;;;11.55;100.00
10145;BME280;5113;41.822;23.564;2023-09-19T01:26:05;-11236.72;;;10.93;100.00
10145;BME280;5113;41.822;23.564;2023-09-19T01:29:26;-11228.25;;;10.63;100.00
10145;BME280;5113;41.822;23.564;2023-09-19T01:32:41;-11229.81;;;10.68;100.00
10145;BME280;5113;41.822;23.564;2023-09-19T01:35:51;-11220.66;;;10.35;100.00
10145;BME280;5113;41.822;23.564;2023-09-19T01:38:58;-11222.34;;;10.41;100.00
10145;BME280;5113;41.822;23.564;2023-09-19T01:42:18;-11231.78;;;10.75;100.00
10145;BME280;5113;41.822;23.564;2023-09-19T01:45:34;-11241.47;;;11.10;100.00
10145;BME280;5113;41.822;23.564;2023-09-19T01:48:53;-11234.59;;;10.85;100.00
10145;BME280;5113;41.822;23.564;2023-09-19T01:52:05;-11227.69;;;10.61;100.00
10145;BME280;5113;41.822;23.564;2023-09-19T01:55:17;-11227.28;;;10.59;100.00
10145;BME280;5113;41.822;23.564;2023-09-19T01:58:33;-11232.47;;;10.78;100.00
10145;BME280;5113;41.822;23.564;2023-09-19T02:01:42;-11238.38;;;10.99;100.00
10145;BME280;5113;41.822;23.564;2023-09-19T02:04:54;-11227.13;;;10.58;100.00
10145;BME280;5113;41.822;23.564;2023-09-19T02:08:01;-11236.84;;;10.94;100.00
10145;BME280;5113;41.822;23.564;2023-09-19T02:11:07;-11239.38;;;11.03;100.00
10145;BME280;5113;41.822;23.564;2023-09-19T02:14:14;-11230.78;;;10.72;100.00
10145;BME280;5113;41.822;23.564;2023-09-19T02:17:20;-11223.47;;;10.45;100.00
10145;BME280;5113;41.822;23.564;2023-09-19T02:20:29;-11224.88;;;10.50;100.00
10145;BME280;5113;41.822;23.564;2023-09-19T02:23:38;-11217.00;;;10.22;100.00
10145;BME280;5113;41.822;23.564;2023-09-19T02:26:45;-11193.25;;;9.36;100.00
10145;BME280;5113;41.822;23.564;2023-09-19T02:29:52;-11195.91;;;9.46;100.00
10145;BME280;5113;41.822;23.564;2023-09-19T02:32:59;-11201.25;;;9.65;100.00
10145;BME280;5113;41.822;23.564;2023-09-19T02:36:09;-11216.72;;;10.21;100.00
10145;BME280;5113;41.822;23.564;2023-09-19T02:39:16;-11224.31;;;10.48;100.00
10145;BME280;5113;41.822;23.564;2023-09-19T02:42:22;-11207.31;;;9.87;100.00
10145;BME280;5113;41.822;23.564;2023-09-19T02:45:28;-11204.06;;;9.75;100.00
10145;BME280;5113;41.822;23.564;2023-09-19T02:48:35;-11207.88;;;9.89;100.00
10145;BME280;5113;41.822;23.564;2023-09-19T02:51:43;-11211.66;;;10.03;100.00
10145;BME280;5113;41.822;23.564;2023-09-19T02:54:50;-11223.75;;;10.46;100.00
10145;BME280;5113;41.822;23.564;2023-09-19T02:57:56;-11215.03;;;10.15;100.00
10145;BME280;5113;41.822;23.564;2023-09-19T03:01:08;-11199.44;;;9.58;100.00
10145;BME280;5113;41.822;23.564;2023-09-19T03:04:16;-11199.84;;;9.60;100.00
10145;BME280;5113;41.822;23.564;2023-09-19T03:07:26;-11214.47;;;10.13;100.00
10145;BME280;5113;41.822;23.564;2023-09-19T03:10:33;-11191.41;;;9.30;100.00
10145;BME280;5113;41.822;23.564;2023-09-19T03:13:42;-11186.78;;;9.13;100.00
10145;BME280;5113;41.822;23.564;2023-09-19T03:16:50;-11181.00;;;8.92;100.00
10145;BME280;5113;41.822;23.564;2023-09-19T03:19:58;-11195.50;;;9.44;100.00
10145;BME280;5113;41.822;23.564;2023-09-19T03:23:05;-11213.63;;;10.10;100.00
10145;BME280;5113;41.822;23.564;2023-09-19T03:26:13;-11208.28;;;9.90;100.00
10145;BME280;5113;41.822;23.564;2023-09-19T03:29:21;-11216.44;;;10.20;100.00
10145;BME280;5113;41.822;23.564;2023-09-19T03:32:27;-11207.03;;;9.86;100.00
10145;BME280;5113;41.822;23.564;2023-09-19T03:35:33;-11196.47;;;9.48;100.00
10145;BME280;5113;41.822;23.564;2023-09-19T03:38:43;-11193.94;;;9.39;100.00
10145;BME280;5113;41.822;23.564;2023-09-19T03:41:49;-11195.50;;;9.44;100.00
10145;BME280;5113;41.822;23.564;2023-09-19T03:44:56;-11198.59;;;9.55;100.00
10145;BME280;5113;41.822;23.564;2023-09-19T03:48:08;-11225.88;;;10.54;100.00
10145;BME280;5113;41.822;23.564;2023-09-19T03:51:14;-11231.63;;;10.75;100.00
10145;BME280;5113;41.822;23.564;2023-09-19T03:54:22;-11219.41;;;10.31;100.00
10145;BME280;5113;41.822;23.564;2023-09-19T03:57:28;-11218.56;;;10.28;100.00
10145;BME280;5113;41.822;23.564;2023-09-19T04:00:35;-11223.19;;;10.44;100.00
10145;BME280;5113;41.822;23.564;2023-09-19T04:03:43;-11231.78;;;10.75;100.00
10145;BME280;5113;41.822;23.564;2023-09-19T04:06:53;-11225.16;;;10.51;100.00
10145;BME280;5113;41.822;23.564;2023-09-19T04:10:00;-11231.78;;;10.75;100.00
10145;BME280;5113;41.822;23.564;2023-09-19T04:13:08;-11232.75;;;10.79;100.00
10145;BME280;5113;41.822;23.564;2023-09-19T04:16:14;-11229.66;;;10.68;100.00
10145;BME280;5113;41.822;23.564;2023-09-19T04:19:21;-11233.47;;;10.81;100.00
10145;BME280;5113;41.822;23.564;2023-09-19T04:22:28;-11228.41;;;10.63;100.00
10145;BME280;5113;41.822;23.564;2023-09-19T04:25:36;-11228.25;;;10.63;100.00
10145;BME280;5113;41.822;23.564;2023-09-19T04:28:43;-11236.72;;;10.93;100.00
10145;BME280;5113;41.822;23.564;2023-09-19T04:31:51;-11231.78;;;10.75;100.00
10145;BME280;5113;41.822;23.564;2023-09-19T04:34:57;-11233.47;;;10.81;100.00
10145;BME280;5113;41.822;23.564;2023-09-19T04:38:07;-11228.13;;;10.62;100.00
10145;BME280;5113;41.822;23.564;2023-09-19T04:41:15;-11208.56;;;9.91;100.00
10145;BME280;5113;41.822;23.564;2023-09-19T04:44:22;-11218.13;;;10.26;100.00
10145;BME280;5113;41.822;23.564;2023-09-19T04:47:28;-11199.44;;;9.58;100.00
10145;BME280;5113;41.822;23.564;2023-09-19T04:50:35;-11203.50;;;9.73;100.00
10145;BME280;5113;41.822;23.564;2023-09-19T04:53:42;-11221.22;;;10.37;100.00
10145;BME280;5113;41.822;23.564;2023-09-19T04:56:50;-11230.38;;;10.70;100.00
10145;BME280;5113;41.822;23.564;2023-09-19T04:59:56;-11227.28;;;10.59;100.00
10145;BME280;5113;41.822;23.564;2023-09-19T05:03:03;-11231.50;;;10.74;100.00
10145;BME280;5113;41.822;23.564;2023-09-19T05:06:13;-11226.28;;;10.55;100.00
10145;BME280;5113;41.822;23.564;2023-09-19T05:09:20;-11219.81;;;10.32;100.00
10145;BME280;5113;41.822;23.564;2023-09-19T05:12:28;-11219.69;;;10.32;100.00
10145;BME280;5113;41.822;23.564;2023-09-19T05:15:34;-11245.72;;;11.25;100.00
10145;BME280;5113;41.822;23.564;2023-09-19T05:18:41;-11244.72;;;11.22;100.00
10145;BME280;5113;41.822;23.564;2023-09-19T05:21:48;-11256.53;;;11.65;100.00
10145;BME280;5113;41.822;23.564;2023-09-19T05:24:54;-11253.03;;;11.52;100.00
10145;BME280;5113;41.822;23.564;2023-09-19T05:28:03;-11265.69;;;11.98;100.00
10145;BME280;5113;41.822;23.564;2023-09-19T05:31:10;-11283.00;;;12.60;100.00
10145;BME280;5113;41.822;23.564;2023-09-19T05:34:17;-11270.75;;;12.16;100.00
10145;BME280;5113;41.822;23.564;2023-09-19T05:37:24;-11286.50;;;12.73;100.00
10145;BME280;5113;41.822;23.564;2023-09-19T05:40:31;-11285.41;;;12.69;100.00
10145;BME280;5113;41.822;23.564;2023-09-19T05:43:39;-11301.44;;;13.27;100.00
10145;BME280;5113;41.822;23.564;2023-09-19T05:46:47;-11291.31;;;12.90;100.00
10145;BME280;5113;41.822;23.564;2023-09-19T05:49:53;-11302.44;;;13.30;100.00
10145;BME280;5113;41.822;23.564;2023-09-19T05:53:00;-11309.03;;;13.54;100.00
10145;BME280;5113;41.822;23.564;2023-09-19T05:56:06;-11319.47;;;13.92;100.00
10145;BME280;5113;41.822;23.564;2023-09-19T05:59:16;-11317.22;;;13.83;100.00
10145;BME280;5113;41.822;23.564;2023-09-19T06:02:22;-11335.66;;;14.50;100.00
10145;BME280;5113;41.822;23.564;2023-09-19T06:05:28;-11339.87;;;14.65;100.00
10145;BME280;5113;41.822;23.564;2023-09-19T06:08:36;-11357.06;;;15.27;100.00
10145;BME280;5113;41.822;23.564;2023-09-19T06:11:43;-11355.50;;;15.22;100.00
10145;BME280;5113;41.822;23.564;2023-09-19T06:14:51;-11346.50;;;14.89;100.00
10145;BME280;5113;41.822;23.564;2023-09-19T06:17:58;-11328.63;;;14.25;100.00
10145;BME280;5113;41.822;23.564;2023-09-19T06:21:04;-11347.06;;;14.91;100.00
10145;BME280;5113;41.822;23.564;2023-09-19T06:24:12;-11346.09;;;14.88;100.00
10145;BME280;5113;41.822;23.564;2023-09-19T06:27:19;-11346.38;;;14.89;100.00
10145;BME280;5113;41.822;23.564;2023-09-19T06:30:28;-11345.66;;;14.86;100.00
10145;BME280;5113;41.822;23.564;2023-09-19T06:33:35;-11366.50;;;15.61;100.00
10145;BME280;5113;41.822;23.564;2023-09-19T06:36:44;-11371.44;;;15.79;100.00
10145;BME280;5113;41.822;23.564;2023-09-19T06:39:51;-11375.53;;;15.94;100.00
10145;BME280;5113;41.822;23.564;2023-09-19T06:42:57;-11389.91;;;16.45;100.00
10145;BME280;5113;41.822;23.564;2023-09-19T06:46:09;-11367.91;;;15.66;100.00
10145;BME280;5113;41.822;23.564;2023-09-19T06:49:18;-11379.19;;;16.07;100.00
10145;BME280;5113;41.822;23.564;2023-09-19T06:52:24;-11396.09;;;16.68;100.00
10145;BME280;5113;41.822;23.564;2023-09-19T06:55:33;-11396.38;;;16.69;100.00
10145;BME280;5113;41.822;23.564;2023-09-19T06:58:39;-11400.31;;;16.83;100.00
10145;BME280;5113;41.822;23.564;2023-09-19T07:01:50;-11407.50;;;17.09;100.00
10145;BME280;5113;41.822;23.564;2023-09-19T07:04:57;-11387.06;;;16.35;100.00
10145;BME280;5113;41.822;23.564;2023-09-19T07:08:04;-11396.09;;;16.68;100.00
10145;BME280;5113;41.822;23.564;2023-09-19T07:11:11;-11416.66;;;17.42;100.00
10145;BME280;5113;41.822;23.564;2023-09-19T07:14:19;-11441.75;;;18.32;100.00
10145;BME280;5113;41.822;23.564;2023-09-19T07:17:27;-11413.84;;;17.32;100.00
10145;BME280;5113;41.822;23.564;2023-09-19T07:20:35;-11429.38;;;17.88;100.00
10145;BME280;5113;41.822;23.564;2023-09-19T07:23:42;-11436.69;;;18.14;100.00
10145;BME280;5113;41.822;23.564;2023-09-19T07:26:49;-11439.78;;;18.25;100.00
10145;BME280;5113;41.822;23.564;2023-09-19T07:29:55;-11422.16;;;17.62;100.00
10145;BME280;5113;41.822;23.564;2023-09-19T07:33:04;-11437.25;;;18.16;95.84
10145;BME280;5113;41.822;23.564;2023-09-19T07:36:11;-11432.47;;;17.99;98.78
10145;BME280;5113;41.822;23.564;2023-09-19T07:39:18;-11453.47;;;18.74;94.61
10145;BME280;5113;41.822;23.564;2023-09-19T07:42:27;-11479.41;;;19.68;91.71
10145;BME280;5113;41.822;23.564;2023-09-19T07:45:34;-11490.69;;;20.08;88.31
10145;BME280;5113;41.822;23.564;2023-09-19T07:48:42;-11465.72;;;19.19;93.76
10145;BME280;5113;41.822;23.564;2023-09-19T07:51:53;-11482.81;;;19.80;89.52
10145;BME280;5113;41.822;23.564;2023-09-19T07:55:02;-11483.94;;;19.84;87.64
10145;BME280;5113;41.822;23.564;2023-09-19T07:58:14;-11493.09;;;20.17;87.59
10145;BME280;5113;41.822;23.564;2023-09-19T08:01:21;-11506.94;;;20.67;84.58
10145;BME280;5113;41.822;23.564;2023-09-19T08:04:30;-11498.03;;;20.35;84.65
10145;BME280;5113;41.822;23.564;2023-09-19T08:07:39;-11483.22;;;19.82;84.89
10145;BME280;5113;41.822;23.564;2023-09-19T08:10:52;-11495.34;;;20.25;87.02
10145;BME280;5113;41.822;23.564;2023-09-19T08:14:00;-11527.53;;;21.41;79.57
10145;BME280;5113;41.822;23.564;2023-09-19T08:17:07;-11504.25;;;20.57;74.79
10145;BME280;5113;41.822;23.564;2023-09-19T08:20:15;-11503.25;;;20.54;70.51
10145;BME280;5113;41.822;23.564;2023-09-19T08:23:22;-11536.41;;;21.73;67.35
10145;BME280;5113;41.822;23.564;2023-09-19T08:26:29;-11566.47;;;22.81;66.11
10145;BME280;5113;41.822;23.564;2023-09-19T08:29:36;-11553.47;;;22.34;65.17
10145;BME280;5113;41.822;23.564;2023-09-19T08:32:43;-11548.97;;;22.18;66.20
10145;BME280;5113;41.822;23.564;2023-09-19T08:35:55;-11536.41;;;21.73;67.38
10145;BME280;5113;41.822;23.564;2023-09-19T08:39:01;-11530.34;;;21.51;65.45
10145;BME280;5113;41.822;23.564;2023-09-19T08:42:08;-11537.25;;;21.76;66.29
10145;BME280;5113;41.822;23.564;2023-09-19T08:45:16;-11538.94;;;21.82;65.14
10145;BME280;5113;41.822;23.564;2023-09-19T08:48:24;-11550.66;;;22.24;64.12
10145;BME280;5113;41.822;23.564;2023-09-19T08:51:41;-11548.69;;;22.17;64.92
10145;BME280;5113;41.822;23.564;2023-09-19T08:54:52;-11542.19;;;21.94;66.20
10145;BME280;5113;41.822;23.564;2023-09-19T08:58:01;-11568.44;;;22.88;64.61
10145;BME280;5113;41.822;23.564;2023-09-19T09:01:08;-11539.66;;;21.85;62.88
10145;BME280;5113;41.822;23.564;2023-09-19T09:04:17;-11554.75;;;22.39;64.36
10145;BME280;5113;41.822;23.564;2023-09-19T09:07:26;-11554.19;;;22.37;61.54
10145;BME280;5113;41.822;23.564;2023-09-19T09:10:33;-11566.03;;;22.80;60.47
10145;BME280;5113;41.822;23.564;2023-09-19T09:13:40;-11548.81;;;22.18;61.56
10145;BME280;5113;41.822;23.564;2023-09-19T09:16:47;-11572.53;;;23.03;59.14
10145;BME280;5113;41.822;23.564;2023-09-19T09:19:54;-11569.16;;;22.91;60.87
10145;BME280;5113;41.822;23.564;2023-09-19T09:23:02;-11581.28;;;23.34;58.29
10145;BME280;5113;41.822;23.564;2023-09-19T09:26:10;-11574.66;;;23.11;58.55
10145;BME280;5113;41.822;23.564;2023-09-19T09:29:16;-11580.28;;;23.31;60.04
10145;BME280;5113;41.822;23.564;2023-09-19T09:32:26;-11566.19;;;22.80;61.69
10145;BME280;5113;41.822;23.564;2023-09-19T09:35:33;-11568.16;;;22.87;60.59
10145;BME280;5113;41.822;23.564;2023-09-19T09:38:47;-11576.06;;;23.16;57.65
10145;BME280;5113;41.822;23.564;2023-09-19T09:41:54;-11589.75;;;23.65;57.53
10145;BME280;5113;41.822;23.564;2023-09-19T09:45:22;-11576.47;;;23.17;60.26
10145;BME280;5113;41.822;23.564;2023-09-19T09:48:33;-11591.31;;;23.70;58.50
10145;BME280;5113;41.822;23.564;2023-09-19T09:51:44;-11570.13;;;22.94;58.47
10145;BME280;5113;41.822;23.564;2023-09-19T09:55:01;-11582.00;;;23.37;57.54
10145;BME280;5113;41.822;23.564;2023-09-19T09:58:18;-11580.16;;;23.30;56.99
10145;BME280;5113;41.822;23.564;2023-09-19T10:01:46;-11578.31;;;23.24;59.87
10145;BME280;5113;41.822;23.564;2023-09-19T10:04:54;-11579.59;;;23.28;56.36
10145;BME280;5113;41.822;23.564;2023-09-19T10:08:15;-11587.34;;;23.56;54.34
10145;BME280;5113;41.822;23.564;2023-09-19T10:11:26;-11582.28;;;23.38;54.61
10145;BME280;5113;41.822;23.564;2023-09-19T10:14:37;-11592.56;;;23.75;54.20
10145;BME280;5113;41.822;23.564;2023-09-19T10:17:44;-11591.59;;;23.71;53.32
10145;BME280;5113;41.822;23.564;2023-09-19T10:20:51;-11613.91;;;24.52;52.02
10145;BME280;5113;41.822;23.564;2023-09-19T10:23:58;-11589.91;;;23.65;53.16
10145;BME280;5113;41.822;23.564;2023-09-19T10:27:07;-11609.66;;;24.36;53.06
10145;BME280;5113;41.822;23.564;2023-09-19T10:30:14;-11628.00;;;25.02;53.08
10145;BME280;5113;41.822;23.564;2023-09-19T10:33:24;-11628.44;;;25.04;50.19
10145;BME280;5113;41.822;23.564;2023-09-19T10:36:33;-11615.59;;;24.58;50.61
10145;BME280;5113;41.822;23.564;2023-09-19T10:39:40;-11638.59;;;25.41;50.62
10145;BME280;5113;41.822;23.564;2023-09-19T10:42:48;-11619.81;;;24.73;50.80
10145;BME280;5113;41.822;23.564;2023-09-19T10:46:01;-11629.28;;;25.07;51.54
10145;BME280;5113;41.822;23.564;2023-09-19T10:49:10;-11640.56;;;25.48;50.94
10145;BME280;5113;41.822;23.564;2023-09-19T10:52:21;-11652.03;;;25.89;49.54
10145;BME280;5113;41.822;23.564;2023-09-19T10:55:31;-11668.97;;;26.50;47.27
10145;BME280;5113;41.822;23.564;2023-09-19T10:58:42;-11671.94;;;26.60;47.98
10145;BME280;5113;41.822;23.564;2023-09-19T11:01:51;-11668.13;;;26.47;47.38
10145;BME280;5113;41.822;23.564;2023-09-19T11:05:11;-11665.44;;;26.37;46.89
10145;BME280;5113;41.822;23.564;2023-09-19T11:08:18;-11662.75;;;26.27;48.90
10145;BME280;5113;41.822;23.564;2023-09-19T11:11:45;-11668.13;;;26.47;49.98
10145;BME280;5113;41.822;23.564;2023-09-19T11:14:59;-11665.28;;;26.37;46.72
10145;BME280;5113;41.822;23.564;2023-09-19T11:21:53;-11671.78;;;26.60;47.65
10145;BME280;5113;41.822;23.564;2023-09-19T11:28:44;-11655.97;;;26.03;49.86
10145;BME280;5113;41.822;23.564;2023-09-19T11:31:53;-11647.78;;;25.74;49.21
10145;BME280;5113;41.822;23.564;2023-09-19T11:35:07;-11636.34;;;25.32;50.57
10145;BME280;5113;41.822;23.564;2023-09-19T11:38:13;-11638.31;;;25.40;50.37
10145;BME280;5113;41.822;23.564;2023-09-19T11:41:37;-11627.88;;;25.02;49.61
10145;BME280;5113;41.822;23.564;2023-09-19T11:44:44;-11662.59;;;26.27;48.61
10145;BME280;5113;41.822;23.564;2023-09-19T11:47:52;-11672.78;;;26.63;47.22
10145;BME280;5113;41.822;23.564;2023-09-19T11:50:58;-11663.88;;;26.31;46.22
10145;BME280;5113;41.822;23.564;2023-09-19T11:54:13;-11663.59;;;26.30;47.20
10145;BME280;5113;41.822;23.564;2023-09-19T11:57:24;-11653.44;;;25.94;46.79
10145;BME280;5113;41.822;23.564;2023-09-19T12:00:31;-11665.16;;;26.36;46.69
10145;BME280;5113;41.822;23.564;2023-09-19T12:03:43;-11689.31;;;27.23;44.49
10145;BME280;5113;41.822;23.564;2023-09-19T12:06:56;-11690.56;;;27.27;46.51
10145;BME280;5113;41.822;23.564;2023-09-19T12:10:05;-11691.41;;;27.30;46.71
10145;BME280;5113;41.822;23.564;2023-09-19T12:13:17;-11702.31;;;27.70;46.03
10145;BME280;5113;41.822;23.564;2023-09-19T12:16:23;-11696.66;;;27.49;45.83
10145;BME280;5113;41.822;23.564;2023-09-19T12:19:32;-11687.31;;;27.16;48.22
10145;BME280;5113;41.822;23.564;2023-09-19T12:22:39;-11702.59;;;27.71;49.45
10145;BME280;5113;41.822;23.564;2023-09-19T12:25:49;-11705.41;;;27.81;48.04
10145;BME280;5113;41.822;23.564;2023-09-19T12:28:58;-11723.19;;;28.45;46.53
10145;BME280;5113;41.822;23.564;2023-09-19T12:32:07;-11723.34;;;28.45;47.21
10145;BME280;5113;41.822;23.564;2023-09-19T12:35:28;-11704.28;;;27.77;49.58
10145;BME280;5113;41.822;23.564;2023-09-19T12:38:35;-11717.69;;;28.25;47.91
10145;BME280;5113;41.822;23.564;2023-09-19T12:41:41;-11721.50;;;28.39;47.24
10145;BME280;5113;41.822;23.564;2023-09-19T12:44:52;-11711.75;;;28.04;48.15
10145;BME280;5113;41.822;23.564;2023-09-19T12:48:20;-11711.63;;;28.03;47.96
10145;BME280;5113;41.822;23.564;2023-09-19T12:51:35;-11710.19;;;27.98;48.07
10145;BME280;5113;41.822;23.564;2023-09-19T12:54:42;-11716.56;;;28.21;48.66
10145;BME280;5113;41.822;23.564;2023-09-19T12:57:59;-11709.63;;;27.96;48.40
10145;BME280;5113;41.822;23.564;2023-09-19T13:01:14;-11719.25;;;28.31;48.14
10145;BME280;5113;41.822;23.564;2023-09-19T13:04:21;-11698.91;;;27.57;48.14
10145;BME280;5113;41.822;23.564;2023-09-19T13:07:43;-11713.75;;;28.11;48.80
10145;BME280;5113;41.822;23.564;2023-09-19T13:11:09;-11728.00;;;28.62;47.60
10145;BME280;5113;41.822;23.564;2023-09-19T13:14:19;-11706.09;;;27.83;48.33
10145;BME280;5113;41.822;23.564;2023-09-19T13:17:42;-11674.59;;;26.70;51.55
10145;BME280;5113;41.822;23.564;2023-09-19T13:21:07;-11694.38;;;27.41;50.06
10145;BME280;5113;41.822;23.564;2023-09-19T13:24:22;-11731.53;;;28.75;47.62
10145;BME280;5113;41.822;23.564;2023-09-19T13:27:32;-11708.66;;;27.92;49.64
10145;BME280;5113;41.822;23.564;2023-09-19T13:30:39;-11695.78;;;27.46;50.18
10145;BME280;5113;41.822;23.564;2023-09-19T13:33:49;-11682.81;;;27.00;48.26
10145;BME280;5113;41.822;23.564;2023-09-19T13:36:57;-11687.31;;;27.16;48.67
10145;BME280;5113;41.822;23.564;2023-09-19T13:40:07;-11671.38;;;26.58;50.24
10145;BME280;5113;41.822;23.564;2023-09-19T13:43:13;-11674.19;;;26.69;50.58
10145;BME280;5113;41.822;23.564;2023-09-19T13:46:21;-11680.81;;;26.92;50.87
10145;BME280;5113;41.822;23.564;2023-09-19T13:49:30;-11686.47;;;27.13;51.26
10145;BME280;5113;41.822;23.564;2023-09-19T13:52:37;-11674.03;;;26.68;52.46
10145;BME280;5113;41.822;23.564;2023-09-19T13:55:46;-11678.56;;;26.84;52.59
10145;BME280;5113;41.822;23.564;2023-09-19T13:58:53;-11654.84;;;25.99;55.40
10145;BME280;5113;41.822;23.564;2023-09-19T14:01:59;-11657.94;;;26.10;54.70
10145;BME280;5113;41.822;23.564;2023-09-19T14:05:08;-11656.09;;;26.04;53.85
10145;BME280;5113;41.822;23.564;2023-09-19T14:08:15;-11676.88;;;26.78;53.93
10145;BME280;5113;41.822;23.564;2023-09-19T14:11:23;-11662.87;;;26.28;51.71
10145;BME280;5113;41.822;23.564;2023-09-19T14:14:31;-11654.56;;;25.98;49.90
10145;BME280;5113;41.822;23.564;2023-09-19T14:17:38;-11689.72;;;27.24;48.18
10145;BME280;5113;41.822;23.564;2023-09-19T14:20:44;-11672.91;;;26.64;49.04
10145;BME280;5113;41.822;23.564;2023-09-19T14:23:51;-11714.72;;;28.14;47.29
10145;BME280;5113;41.822;23.564;2023-09-19T14:27:01;-11730.81;;;28.72;45.70
10145;BME280;5113;41.822;23.564;2023-09-19T14:30:09;-11728.56;;;28.64;45.75
10145;BME280;5113;41.822;23.564;2023-09-19T14:33:15;-11721.38;;;28.38;44.81
10145;BME280;5113;41.822;23.564;2023-09-19T14:36:22;-11719.25;;;28.31;46.32
10145;BME280;5113;41.822;23.564;2023-09-19T14:39:30;-11725.75;;;28.54;46.95
10145;BME280;5113;41.822;23.564;2023-09-19T14:42:39;-11686.47;;;27.13;50.54
10145;BME280;5113;41.822;23.564;2023-09-19T14:45:46;-11688.16;;;27.19;48.63
10145;BME280;5113;41.822;23.564;2023-09-19T14:48:52;-11661.19;;;26.22;52.37
10145;BME280;5113;41.822;23.564;2023-09-19T14:51:58;-11656.97;;;26.07;54.49
10145;BME280;5113;41.822;23.564;2023-09-19T14:55:06;-11638.31;;;25.40;57.08
10145;BME280;5113;41.822;23.564;2023-09-19T14:58:15;-11634.22;;;25.25;58.31
10145;BME280;5113;41.822;23.564;2023-09-19T15:01:22;-11645.38;;;25.65;57.65
10145;BME280;5113;41.822;23.564;2023-09-19T15:04:28;-11635.63;;;25.30;59.89
10145;BME280;5113;41.822;23.564;2023-09-19T15:07:36;-11631.97;;;25.17;61.19
10145;BME280;5113;41.822;23.564;2023-09-19T15:10:49;-11633.09;;;25.21;62.44
10145;BME280;5113;41.822;23.564;2023-09-19T15:13:59;-11622.09;;;24.81;64.90
10145;BME280;5113;41.822;23.564;2023-09-19T15:17:08;-11627.03;;;24.99;66.29
10145;BME280;5113;41.822;23.564;2023-09-19T15:20:15;-11619.81;;;24.73;69.09
10145;BME280;5113;41.822;23.564;2023-09-19T15:23:23;-11619.41;;;24.72;67.81
10145;BME280;5113;41.822;23.564;2023-09-19T15:26:36;-11617.44;;;24.64;68.45
10145;BME280;5113;41.822;23.564;2023-09-19T15:29:45;-11609.09;;;24.34;69.61
10145;BME280;5113;41.822;23.564;2023-09-19T15:32:52;-11590.47;;;23.67;72.90
10145;BME280;5113;41.822;23.564;2023-09-19T15:36:02;-11582.28;;;23.38;78.25
10145;BME280;5113;41.822;23.564;2023-09-19T15:39:09;-11572.97;;;23.04;78.53
10145;BME280;5113;41.822;23.564;2023-09-19T15:42:17;-11567.59;;;22.85;81.64
10145;BME280;5113;41.822;23.564;2023-09-19T15:45:25;-11557.56;;;22.49;88.11
10145;BME280;5113;41.822;23.564;2023-09-19T15:48:31;-11573.25;;;23.05;80.83
10145;BME280;5113;41.822;23.564;2023-09-19T15:51:38;-11565.75;;;22.79;82.64
10145;BME280;5113;41.822;23.564;2023-09-19T15:54:45;-11567.59;;;22.85;79.93
10145;BME280;5113;41.822;23.564;2023-09-19T15:57:51;-11563.91;;;22.72;79.05
10145;BME280;5113;41.822;23.564;2023-09-19T16:01:04;-11558.56;;;22.53;80.03
10145;BME280;5113;41.822;23.564;2023-09-19T16:04:11;-11548.13;;;22.15;82.37
10145;BME280;5113;41.822;23.564;2023-09-19T16:07:18;-11537.69;;;21.78;86.04
10145;BME280;5113;41.822;23.564;2023-09-19T16:10:25;-11532.03;;;21.57;89.76
10145;BME280;5113;41.822;23.564;2023-09-19T16:13:32;-11536.41;;;21.73;87.71
10145;BME280;5113;41.822;23.564;2023-09-19T16:16:39;-11532.88;;;21.60;90.04
10145;BME280;5113;41.822;23.564;2023-09-19T16:19:46;-11525.84;;;21.35;94.78
10145;BME280;5113;41.822;23.564;2023-09-19T16:22:53;-11521.31;;;21.19;93.61
10145;BME280;5113;41.822;23.564;2023-09-19T16:26:03;-11514.13;;;20.93;99.46
10145;BME280;5113;41.822;23.564;2023-09-19T16:29:10;-11509.19;;;20.75;100.00